createdAt,value
2022-11-17T00:07:18.325Z,18.40
2022-11-17T00:17:23.409Z,18.40
2022-11-17T00:27:27.220Z,18.30
2022-11-17T00:37:35.633Z,18.30
2022-11-17T00:47:39.466Z,18.20
2022-11-17T00:57:44.633Z,17.90
2022-11-17T01:07:49.147Z,18.00
2022-11-17T01:17:56.055Z,18.40
2022-11-17T01:28:00.011Z,18.60
2022-11-17T01:38:05.244Z,18.60
2022-11-17T01:48:14.769Z,18.30
2022-11-17T01:58:22.652Z,18.10
2022-11-17T02:08:30.206Z,17.70
2022-11-17T02:18:35.318Z,17.90
2022-11-17T02:28:46.697Z,18.20
2022-11-17T02:38:58.851Z,18.20
2022-11-17T02:49:07.239Z,18.40
2022-11-17T02:59:14.636Z,18.00
2022-11-17T03:09:26.749Z,18.70
2022-11-17T03:19:34.456Z,18.50
2022-11-17T03:29:43.213Z,18.60
2022-11-17T03:39:50.789Z,18.50
2022-11-17T03:50:00.617Z,18.50
2022-11-17T04:00:07.628Z,18.50
2022-11-17T04:10:19.082Z,18.10
2022-11-17T04:20:22.803Z,18.10
2022-11-17T04:30:27.992Z,18.10
2022-11-17T04:40:54.660Z,18.20
2022-11-17T04:50:59.610Z,18.30
2022-11-17T05:01:19.221Z,18.10
2022-11-17T05:11:45.601Z,17.90
2022-11-17T05:21:49.350Z,18.00
2022-11-17T05:31:54.582Z,18.10
2022-11-17T05:41:58.685Z,18.30
2022-11-17T05:52:04.222Z,18.20
2022-11-17T06:02:11.583Z,18.10
2022-11-17T06:12:16.712Z,18.20
2022-11-17T06:22:20.463Z,18.10
2022-11-17T06:32:25.748Z,18.20
2022-11-17T06:42:43.389Z,18.10
2022-11-17T06:52:48.528Z,18.00
2022-11-17T07:02:52.548Z,17.90
2022-11-17T07:12:57.903Z,18.00
2022-11-17T07:23:03.145Z,18.20
2022-11-17T07:33:08.777Z,18.40
2022-11-17T07:43:12.835Z,18.60
2022-11-17T07:53:18.440Z,18.70
2022-11-17T08:03:22.267Z,18.70
2022-11-17T08:13:27.483Z,18.70
2022-11-17T08:23:31.433Z,18.80
2022-11-17T08:33:36.625Z,19.10
2022-11-17T08:43:40.809Z,19.30
2022-11-17T08:53:45.923Z,19.40
2022-11-17T09:03:49.723Z,19.50
2022-11-17T09:13:54.917Z,19.50
2022-11-17T09:23:58.530Z,19.50
2022-11-17T09:34:05.642Z,19.50
2022-11-17T09:44:21.129Z,19.70
2022-11-17T09:54:35.613Z,20.10
2022-11-17T10:04:39.441Z,20.50
2022-11-17T10:14:44.816Z,21.30
2022-11-17T10:24:50.753Z,21.70
2022-11-17T10:34:55.887Z,21.20
2022-11-17T10:45:02.062Z,21.20
2022-11-17T10:55:20.611Z,21.20
2022-11-17T11:05:26.207Z,20.80
2022-11-17T11:15:36.160Z,21.00
2022-11-17T11:25:47.069Z,21.30
2022-11-17T11:36:06.121Z,21.60
2022-11-17T11:46:19.958Z,21.70
2022-11-17T11:56:33.110Z,21.20
2022-11-17T12:06:50.390Z,21.80
2022-11-17T12:17:04.970Z,21.90
2022-11-17T12:27:32.765Z,22.20
2022-11-17T12:37:37.832Z,22.30
2022-11-17T12:47:50.764Z,21.50
2022-11-17T12:58:11.935Z,21.70
2022-11-17T13:08:23.429Z,21.60
2022-11-17T13:18:34.640Z,21.70
2022-11-17T13:28:38.667Z,22.10
2022-11-17T13:38:48.962Z,22.60
2022-11-17T13:48:53.579Z,23.30
2022-11-17T13:59:00.125Z,23.90
2022-11-17T14:09:06.576Z,24.60
2022-11-17T14:19:27.795Z,23.10
2022-11-17T14:29:31.630Z,22.20
2022-11-17T14:39:37.326Z,21.70
2022-11-17T14:49:41.890Z,22.00
2022-11-17T14:59:47.270Z,22.00
2022-11-17T15:09:51.157Z,22.60
2022-11-17T15:19:56.764Z,22.00
2022-11-17T15:30:00.730Z,21.00
2022-11-17T15:40:07.011Z,20.80
2022-11-17T15:50:11.415Z,20.70
2022-11-17T16:00:20.712Z,21.00
2022-11-17T16:10:24.744Z,20.70
2022-11-17T16:20:29.862Z,20.70
2022-11-17T16:30:35.560Z,20.60
2022-11-17T16:40:41.611Z,20.90
2022-11-17T16:50:47.277Z,21.00
2022-11-17T17:00:52.363Z,20.70
2022-11-17T17:10:56.154Z,20.80
2022-11-17T17:21:04.320Z,20.50
2022-11-17T17:31:09.565Z,20.20
2022-11-17T17:41:19.231Z,20.00
2022-11-17T17:51:25.541Z,19.40
2022-11-17T18:01:33.774Z,19.40
2022-11-17T18:11:46.009Z,19.40
2022-11-17T18:21:51.517Z,19.40
2022-11-17T18:31:57.181Z,19.00
2022-11-17T18:42:02.370Z,19.50
2022-11-17T18:52:06.417Z,20.40
2022-11-17T19:02:12.266Z,20.50
2022-11-17T19:12:21.552Z,20.40
2022-11-17T19:22:27.939Z,20.30
2022-11-17T19:32:32.765Z,20.10
2022-11-17T19:42:41.276Z,19.60
2022-11-17T19:52:45.549Z,19.00
2022-11-17T20:02:50.847Z,18.70
2022-11-17T20:12:57.148Z,18.30
2022-11-17T20:23:02.358Z,17.80
2022-11-17T20:33:08.523Z,17.40
2022-11-17T20:43:13.610Z,18.10
2022-11-17T20:53:17.656Z,18.90
2022-11-17T21:03:23.243Z,19.40
2022-11-17T21:13:34.173Z,19.90
2022-11-17T21:23:44.342Z,19.80
2022-11-17T21:33:48.301Z,19.60
2022-11-17T21:43:54.903Z,19.70
2022-11-17T21:54:00.356Z,19.40
2022-11-17T22:04:05.904Z,19.30
2022-11-17T22:14:12.018Z,19.40
2022-11-17T22:24:21.351Z,19.20
2022-11-17T22:34:34.148Z,18.80
2022-11-17T22:44:39.390Z,18.60
2022-11-17T22:54:43.348Z,18.90
2022-11-17T23:04:48.435Z,19.10
2022-11-17T23:14:52.228Z,19.00
2022-11-17T23:24:57.448Z,18.80
2022-11-17T23:35:01.252Z,18.20
2022-11-17T23:45:07.751Z,17.50
2022-11-17T23:55:12.141Z,17.60
